Time;durP1;ratioP1;P1;durP2;ratioP2;P2;SDS_P1;SDS_P2;PMS_P1;PMS_P2;Temp;Humidity;BMP_temperature;BMP_pressure;BME280_temperature;BME280_humidity;BME280_pressure;Samples;Min_cycle;Max_cycle;Signal;HPM_P1;HPM_P2
2021/04/14 00:01:58;;;;;;;8.07;4.20;;;5.50;95.90;;;;;;4311372;33;20184;-71
2021/04/14 00:04:26;;;;;;;8.83;4.43;;;5.40;96.10;;;;;;4310140;33;20159;-72
2021/04/14 00:06:56;;;;;;;7.20;4.20;;;5.40;95.60;;;;;;4310419;33;20235;-72
2021/04/14 00:09:23;;;;;;;8.13;4.30;;;5.40;95.70;;;;;;4309783;33;20493;-72
2021/04/14 00:11:50;;;;;;;9.40;4.67;;;5.40;95.70;;;;;;4309955;33;20203;-72
2021/04/14 00:14:17;;;;;;;9.10;4.60;;;5.40;95.70;;;;;;4309994;33;20150;-72
2021/04/14 00:16:44;;;;;;;7.70;4.37;;;5.40;96.10;;;;;;4310009;33;20208;-72
2021/04/14 00:19:11;;;;;;;7.73;4.33;;;5.40;96.00;;;;;;4309898;33;20480;-71
2021/04/14 00:21:38;;;;;;;10.73;4.93;;;5.40;96.00;;;;;;4309846;33;20182;-72
2021/04/14 00:24:05;;;;;;;8.30;4.50;;;5.40;96.10;;;;;;4310313;33;20389;-71
2021/04/14 00:26:32;;;;;;;7.60;4.27;;;5.40;96.20;;;;;;4310465;33;20207;-71
2021/04/14 00:28:58;;;;;;;6.43;4.27;;;5.40;95.90;;;;;;4309882;33;20146;-72
2021/04/14 00:31:37;;;;;;;10.23;4.50;;;5.30;95.80;;;;;;4310132;33;20204;-72
2021/04/14 00:34:11;;;;;;;6.67;4.30;;;5.30;95.80;;;;;;4310135;33;20255;-71
2021/04/14 00:36:39;;;;;;;7.30;4.03;;;5.30;96.30;;;;;;4308534;33;20160;-72
2021/04/14 00:39:10;;;;;;;8.40;4.50;;;5.30;96.80;;;;;;4308605;33;20224;-71
2021/04/14 00:41:37;;;;;;;7.60;4.10;;;5.30;96.40;;;;;;4306988;33;20192;-71
2021/04/14 00:44:04;;;;;;;7.17;4.20;;;5.40;96.60;;;;;;4307434;33;20258;-71
2021/04/14 00:46:31;;;;;;;7.77;4.50;;;5.40;96.20;;;;;;4308768;33;20522;-71
2021/04/14 00:48:57;;;;;;;9.67;4.60;;;5.40;96.90;;;;;;4307407;33;20369;-72
2021/04/14 00:51:25;;;;;;;9.97;4.30;;;5.40;97.10;;;;;;4307433;33;20182;-71
2021/04/14 00:53:52;;;;;;;8.53;4.30;;;5.40;96.80;;;;;;4307699;33;20148;-72
2021/04/14 00:56:18;;;;;;;8.10;4.13;;;5.40;96.70;;;;;;4307289;33;20176;-71
2021/04/14 00:58:45;;;;;;;9.40;4.60;;;5.40;97.10;;;;;;4308944;33;20152;-71
2021/04/14 01:01:12;;;;;;;7.63;4.23;;;5.30;96.80;;;;;;4307163;33;20163;-72
2021/04/14 01:03:39;;;;;;;8.03;4.37;;;5.30;96.90;;;;;;4307172;33;20168;-72
2021/04/14 01:06:17;;;;;;;8.17;4.60;;;5.20;97.00;;;;;;4307512;33;20145;-71
2021/04/14 01:08:44;;;;;;;9.37;4.77;;;5.10;97.30;;;;;;4307687;33;20441;-72
2021/04/14 01:11:12;;;;;;;8.77;4.50;;;5.10;98.40;;;;;;4307079;33;20146;-72
2021/04/14 01:13:39;;;;;;;10.30;4.57;;;5.10;97.70;;;;;;4307006;33;20147;-71
2021/04/14 01:16:05;;;;;;;10.77;5.10;;;5.10;97.70;;;;;;4307341;33;20179;-71
2021/04/14 01:18:36;;;;;;;7.93;4.73;;;5.20;97.60;;;;;;4306962;33;20158;-72
2021/04/14 01:21:08;;;;;;;8.60;4.80;;;5.10;97.80;;;;;;4307824;33;20229;-71
2021/04/14 01:23:35;;;;;;;7.97;4.47;;;5.10;97.70;;;;;;4307785;33;20167;-71
2021/04/14 01:26:02;;;;;;;9.40;5.07;;;5.10;98.00;;;;;;4307444;33;20196;-72
2021/04/14 01:28:36;;;;;;;9.83;4.70;;;5.00;98.40;;;;;;4306855;33;20220;-72
2021/04/14 01:31:05;;;;;;;9.60;5.00;;;5.10;98.40;;;;;;4306323;33;20149;-72
2021/04/14 01:33:33;;;;;;;9.53;4.90;;;5.10;98.50;;;;;;4307078;33;20171;-72
2021/04/14 01:36:03;;;;;;;8.73;4.93;;;5.00;98.10;;;;;;4306740;33;20345;-71
2021/04/14 01:38:29;;;;;;;10.60;4.53;;;4.90;98.30;;;;;;4307843;33;20217;-72
2021/04/14 01:40:57;;;;;;;7.23;4.50;;;4.90;97.90;;;;;;4306643;33;20152;-72
2021/04/14 01:43:24;;;;;;;11.50;4.70;;;4.90;98.10;;;;;;4308073;33;20177;-72
2021/04/14 01:45:51;;;;;;;9.17;4.70;;;4.90;98.50;;;;;;4308379;33;20541;-72
2021/04/14 01:48:18;;;;;;;10.10;5.07;;;4.90;98.90;;;;;;4308702;33;20396;-72
2021/04/14 01:50:46;;;;;;;9.53;4.70;;;4.90;98.10;;;;;;4314875;33;20228;-71
2021/04/14 01:53:16;;;;;;;7.87;4.60;;;5.00;97.80;;;;;;4306485;33;20423;-72
2021/04/14 01:55:43;;;;;;;9.33;4.63;;;4.90;97.90;;;;;;4306911;33;20154;-72
2021/04/14 01:58:14;;;;;;;9.20;4.73;;;4.90;97.70;;;;;;4307643;33;20145;-72
2021/04/14 02:00:53;;;;;;;9.97;4.63;;;4.90;97.70;;;;;;4306534;33;20474;-72
2021/04/14 02:03:20;;;;;;;8.83;4.57;;;5.00;98.10;;;;;;4307689;33;20154;-72
2021/04/14 02:05:47;;;;;;;9.90;4.67;;;5.00;97.90;;;;;;4306798;33;20145;-72
2021/04/14 02:08:14;;;;;;;9.90;4.70;;;5.00;98.30;;;;;;4306334;33;20240;-72
2021/04/14 02:10:41;;;;;;;9.53;5.30;;;4.90;98.00;;;;;;4307685;33;20469;-71
2021/04/14 02:13:24;;;;;;;8.57;4.67;;;4.90;98.20;;;;;;4306469;33;20159;-71
2021/04/14 02:15:51;;;;;;;10.57;4.80;;;4.90;98.50;;;;;;4306282;33;20486;-71
2021/04/14 02:18:19;;;;;;;8.53;4.50;;;4.90;98.30;;;;;;4306141;33;20213;-71
2021/04/14 02:20:47;;;;;;;9.10;4.70;;;4.90;98.40;;;;;;4306075;33;20207;-71
2021/04/14 02:23:21;;;;;;;10.40;4.77;;;4.90;98.80;;;;;;4306045;33;20216;-71
2021/04/14 02:25:48;;;;;;;11.67;5.17;;;4.90;99.10;;;;;;4306163;33;20207;-71
2021/04/14 02:28:16;;;;;;;10.17;4.83;;;5.00;99.20;;;;;;4306043;33;20165;-71
2021/04/14 02:30:48;;;;;;;8.63;4.80;;;5.10;99.20;;;;;;4305974;33;20181;-71
2021/04/14 02:33:15;;;;;;;10.43;5.07;;;5.10;98.60;;;;;;4306181;33;20406;-71
2021/04/14 02:35:42;;;;;;;11.93;5.20;;;5.00;98.80;;;;;;4305923;33;20539;-71
2021/04/14 02:38:11;;;;;;;9.50;4.67;;;4.90;99.20;;;;;;4305950;33;20176;-71
2021/04/14 02:40:37;;;;;;;11.90;5.30;;;4.80;99.20;;;;;;4305810;33;20153;-71
2021/04/14 02:43:05;;;;;;;8.47;4.90;;;4.90;99.40;;;;;;4305961;33;20526;-71
2021/04/14 02:45:35;;;;;;;9.73;4.80;;;4.90;99.80;;;;;;4305733;33;20516;-71
2021/04/14 02:48:03;;;;;;;9.50;4.53;;;4.80;99.60;;;;;;4306063;33;20159;-71
2021/04/14 02:50:31;;;;;;;10.50;4.87;;;4.80;99.80;;;;;;4306535;33;20425;-71
2021/04/14 02:52:57;;;;;;;9.80;4.70;;;4.70;99.90;;;;;;4306896;33;20146;-71
2021/04/14 02:55:27;;;;;;;8.10;4.17;;;4.70;99.90;;;;;;4305974;33;20227;-71
2021/04/14 02:57:54;;;;;;;10.33;4.20;;;4.70;99.90;;;;;;4305720;33;20445;-71
2021/04/14 03:00:23;;;;;;;9.43;4.23;;;4.70;99.90;;;;;;4305306;33;20410;-71
2021/04/14 03:02:49;;;;;;;8.33;4.00;;;4.70;99.70;;;;;;4306262;33;20149;-71
2021/04/14 03:05:20;;;;;;;8.53;4.40;;;4.60;99.50;;;;;;4306506;33;20145;-71
2021/04/14 03:07:46;;;;;;;8.70;3.70;;;4.70;99.30;;;;;;4306533;33;20145;-71
2021/04/14 03:10:14;;;;;;;7.67;3.60;;;4.60;99.10;;;;;;4305880;33;20211;-71
2021/04/14 03:12:41;;;;;;;10.80;4.23;;;4.60;98.20;;;;;;4305535;33;20185;-71
2021/04/14 03:15:10;;;;;;;9.73;3.70;;;4.60;98.60;;;;;;4305045;33;20145;-71
2021/04/14 03:17:36;;;;;;;11.47;3.80;;;4.50;98.40;;;;;;4304980;33;20180;-71
2021/04/14 03:20:05;;;;;;;7.37;3.80;;;4.40;98.90;;;;;;4306805;33;20540;-71
2021/04/14 03:22:32;;;;;;;9.63;3.57;;;4.50;99.00;;;;;;4305466;33;20144;-71
2021/04/14 03:24:59;;;;;;;9.87;3.53;;;4.50;99.10;;;;;;4305500;33;20476;-71
2021/04/14 03:27:26;;;;;;;7.80;3.27;;;4.50;99.50;;;;;;4306277;33;20191;-71
2021/04/14 03:29:52;;;;;;;7.87;3.03;;;4.50;98.90;;;;;;4306325;33;20165;-71
2021/04/14 03:32:19;;;;;;;8.60;3.63;;;4.50;99.50;;;;;;4305365;33;20204;-71
2021/04/14 03:34:45;;;;;;;8.87;4.17;;;4.50;99.80;;;;;;4304897;33;20204;-71
2021/04/14 03:37:12;;;;;;;11.23;3.70;;;4.60;99.90;;;;;;4305497;33;20453;-71
2021/04/14 03:39:38;;;;;;;7.97;3.43;;;4.60;99.90;;;;;;4305417;33;20190;-71
2021/04/14 03:42:05;;;;;;;7.90;3.20;;;4.60;99.80;;;;;;4305149;33;20165;-71
2021/04/14 03:44:35;;;;;;;10.90;3.50;;;4.60;99.50;;;;;;4306787;33;20149;-71
2021/04/14 03:47:02;;;;;;;8.00;3.40;;;4.60;99.50;;;;;;4305233;33;20205;-71
2021/04/14 03:49:31;;;;;;;9.20;3.07;;;4.60;99.90;;;;;;4305286;33;20155;-70
2021/04/14 03:51:58;;;;;;;7.63;3.03;;;4.50;98.80;;;;;;4305287;33;20528;-71
2021/04/14 03:54:24;;;;;;;7.57;3.20;;;4.50;98.40;;;;;;4305310;33;20244;-71
2021/04/14 03:57:09;;;;;;;13.87;3.57;;;4.50;98.80;;;;;;4305827;33;20395;-71
2021/04/14 03:59:36;;;;;;;7.83;3.07;;;4.60;99.00;;;;;;4306068;33;20221;-71
2021/04/14 04:02:02;;;;;;;9.33;3.20;;;4.50;98.60;;;;;;4305316;33;20259;-71
2021/04/14 04:04:29;;;;;;;7.87;3.17;;;4.50;99.00;;;;;;4306223;33;20146;-72
2021/04/14 04:06:55;;;;;;;10.50;3.37;;;4.50;98.70;;;;;;4305494;33;20189;-72
2021/04/14 04:09:22;;;;;;;7.50;3.47;;;4.60;98.90;;;;;;4305033;33;20194;-72
2021/04/14 04:11:49;;;;;;;9.50;3.60;;;4.60;99.40;;;;;;4306008;33;20365;-72
2021/04/14 04:14:15;;;;;;;9.63;3.40;;;4.50;98.90;;;;;;4307910;33;20154;-72
2021/04/14 04:16:42;;;;;;;9.77;3.17;;;4.50;99.10;;;;;;4309252;33;20151;-71
2021/04/14 04:19:10;;;;;;;11.53;3.40;;;4.40;99.50;;;;;;4309246;33;20466;-73
2021/04/14 04:21:36;;;;;;;9.47;3.70;;;4.40;99.90;;;;;;4309031;33;20185;-71
2021/04/14 04:24:03;;;;;;;11.87;4.10;;;4.40;99.00;;;;;;4309239;33;20222;-72
2021/04/14 04:26:30;;;;;;;13.20;4.33;;;4.40;98.60;;;;;;4307646;33;20150;-73
2021/04/14 04:28:56;;;;;;;10.00;4.23;;;4.30;99.30;;;;;;4307812;33;20168;-72
2021/04/14 04:31:23;;;;;;;9.80;3.70;;;4.40;99.30;;;;;;4307659;33;20213;-72
2021/04/14 04:33:49;;;;;;;15.93;4.93;;;4.40;98.50;;;;;;4307541;33;20158;-72
2021/04/14 04:36:16;;;;;;;11.90;4.60;;;4.40;98.10;;;;;;4308943;33;20146;-72
2021/04/14 04:38:42;;;;;;;7.93;3.63;;;4.40;98.60;;;;;;4308925;33;20155;-72
2021/04/14 04:41:09;;;;;;;8.40;3.30;;;4.30;98.20;;;;;;4308507;33;20217;-72
2021/04/14 04:43:35;;;;;;;6.50;3.00;;;4.20;99.40;;;;;;4307498;33;20227;-71
2021/04/14 04:46:02;;;;;;;10.53;3.63;;;4.20;99.90;;;;;;4307406;33;20455;-72
2021/04/14 04:48:28;;;;;;;11.20;3.20;;;4.20;99.90;;;;;;4306719;33;20150;-71
2021/04/14 04:50:55;;;;;;;10.13;3.43;;;4.10;99.90;;;;;;4306904;33;20203;-71
2021/04/14 04:53:23;;;;;;;8.33;3.40;;;4.10;99.90;;;;;;4308156;33;20513;-72
2021/04/14 04:55:50;;;;;;;13.43;3.60;;;4.10;99.90;;;;;;4307214;33;20149;-72
2021/04/14 04:58:18;;;;;;;9.80;3.80;;;4.20;99.90;;;;;;4307095;33;20150;-72
2021/04/14 05:00:46;;;;;;;10.73;4.77;;;4.10;99.90;;;;;;4307458;33;20205;-72
2021/04/14 05:03:15;;;;;;;14.73;5.33;;;4.10;99.90;;;;;;4307042;33;20175;-71
2021/04/14 05:05:42;;;;;;;14.30;5.50;;;4.00;99.90;;;;;;4307365;33;20188;-71
2021/04/14 05:08:10;;;;;;;9.50;4.20;;;3.90;99.90;;;;;;4306776;33;20166;-72
2021/04/14 05:10:37;;;;;;;13.70;4.80;;;3.90;99.90;;;;;;4307438;33;20173;-71
2021/04/14 05:13:08;;;;;;;13.73;4.40;;;3.90;99.90;;;;;;4308340;33;20173;-72
2021/04/14 05:15:38;;;;;;;12.03;4.40;;;3.80;99.90;;;;;;4308261;33;20177;-72
2021/04/14 05:18:06;;;;;;;10.67;4.77;;;3.80;99.90;;;;;;4307687;33;20181;-72
2021/04/14 05:20:33;;;;;;;9.63;4.03;;;3.60;99.90;;;;;;4306589;33;20426;-72
2021/04/14 05:23:00;;;;;;;10.37;4.10;;;3.50;99.90;;;;;;4305802;33;20273;-72
2021/04/14 05:25:32;;;;;;;10.77;4.13;;;3.60;99.90;;;;;;4307980;33;20170;-72
2021/04/14 05:28:06;;;;;;;8.03;4.10;;;3.40;99.90;;;;;;4307079;33;20202;-71
2021/04/14 05:30:33;;;;;;;9.20;4.30;;;3.40;99.90;;;;;;4307516;33;20411;-72
2021/04/14 05:33:00;;;;;;;9.33;4.97;;;3.40;99.90;;;;;;4306660;33;20170;-72
2021/04/14 05:35:27;;;;;;;9.93;4.40;;;3.50;99.90;;;;;;4306608;33;20165;-72
2021/04/14 05:37:54;;;;;;;9.47;3.87;;;3.40;99.90;;;;;;4305961;33;20189;-73
2021/04/14 05:40:23;;;;;;;8.77;4.03;;;3.30;99.90;;;;;;4306484;33;20172;-73
2021/04/14 05:42:50;;;;;;;11.73;4.90;;;3.20;99.90;;;;;;4307361;33;20149;-73
2021/04/14 05:45:25;;;;;;;8.43;4.67;;;3.10;99.90;;;;;;4307062;33;20373;-73
2021/04/14 05:47:51;;;;;;;8.53;4.77;;;3.00;99.90;;;;;;4306875;33;20196;-73
2021/04/14 05:50:21;;;;;;;9.33;4.80;;;3.00;99.90;;;;;;4306467;33;20205;-73
2021/04/14 05:52:48;;;;;;;9.53;4.30;;;2.90;99.90;;;;;;4306901;33;20215;-72
2021/04/14 05:55:15;;;;;;;7.13;3.80;;;2.90;99.90;;;;;;4307447;33;20182;-73
2021/04/14 05:57:42;;;;;;;7.70;3.17;;;2.80;99.90;;;;;;4306231;33;20154;-73
2021/04/14 06:00:13;;;;;;;4.10;2.37;;;2.70;99.90;;;;;;4304835;33;20165;-73
2021/04/14 06:02:42;;;;;;;5.43;2.83;;;2.60;99.90;;;;;;4304578;33;20489;-73
2021/04/14 06:05:13;;;;;;;7.53;3.00;;;2.50;99.90;;;;;;4304014;33;20177;-73
2021/04/14 06:07:40;;;;;;;8.27;4.20;;;2.60;99.90;;;;;;4305716;33;20195;-73
2021/04/14 06:10:08;;;;;;;10.17;5.50;;;2.60;99.90;;;;;;4304065;33;20173;-73
2021/04/14 06:12:35;;;;;;;12.23;5.63;;;2.60;99.90;;;;;;4304226;33;20189;-73
2021/04/14 06:15:08;;;;;;;12.90;6.33;;;2.60;99.90;;;;;;4303501;33;20158;-73
2021/04/14 06:17:34;;;;;;;9.57;5.13;;;2.70;99.90;;;;;;4305704;33;20185;-72
2021/04/14 06:20:03;;;;;;;9.23;4.23;;;2.70;99.90;;;;;;4306100;33;20172;-72
2021/04/14 06:22:30;;;;;;;10.93;4.30;;;2.60;99.90;;;;;;4305653;33;20175;-72
2021/04/14 06:24:56;;;;;;;9.70;3.50;;;2.70;99.90;;;;;;4306283;33;20172;-73
2021/04/14 06:27:34;;;;;;;10.43;3.67;;;2.80;99.90;;;;;;4305846;33;20185;-72
2021/04/14 06:30:04;;;;;;;7.70;3.70;;;2.80;99.90;;;;;;4305812;33;20183;-72
2021/04/14 06:32:30;;;;;;;12.47;3.97;;;2.80;99.90;;;;;;4305109;33;20176;-72
2021/04/14 06:34:56;;;;;;;9.57;3.83;;;2.80;99.90;;;;;;4306093;33;20188;-72
2021/04/14 06:37:23;;;;;;;11.23;4.10;;;2.80;99.90;;;;;;4305960;33;20175;-72
2021/04/14 06:40:11;;;;;;;8.17;3.90;;;2.90;99.90;;;;;;4306025;33;20149;-72
2021/04/14 06:42:53;;;;;;;11.60;4.40;;;2.80;99.90;;;;;;4306787;33;20170;-73
2021/04/14 06:45:24;;;;;;;12.90;4.10;;;2.90;99.90;;;;;;4306996;33;20155;-73
2021/04/14 06:48:33;;;;;;;10.37;3.60;;;2.90;99.90;;;;;;4306440;33;20172;-73
2021/04/14 06:51:14;;;;;;;7.07;2.50;;;2.90;99.90;;;;;;4289334;33;20213;-73
2021/04/14 06:53:41;;;;;;;7.53;2.30;;;2.80;99.90;;;;;;4289998;33;20206;-72
2021/04/14 06:56:14;;;;;;;5.50;1.93;;;2.70;99.90;;;;;;4288538;33;20177;-72
2021/04/14 06:59:05;;;;;;;4.23;2.30;;;2.60;99.90;;;;;;4289669;33;20519;-73
2021/04/14 07:01:43;;;;;;;4.63;1.93;;;2.50;99.90;;;;;;4288513;33;20277;-72
2021/04/14 07:04:11;;;;;;;5.77;2.17;;;2.60;99.90;;;;;;4288714;33;20226;-71
2021/04/14 07:06:41;;;;;;;7.67;2.13;;;2.40;99.90;;;;;;4289174;33;20158;-71
2021/04/14 07:09:33;;;;;;;3.20;2.00;;;2.40;99.90;;;;;;4288398;33;20468;-70
2021/04/14 07:12:01;;;;;;;3.87;2.10;;;2.30;99.90;;;;;;4290125;33;20176;-71
2021/04/14 07:14:28;;;;;;;5.27;2.30;;;2.30;99.90;;;;;;4288379;33;20180;-71
2021/04/14 07:17:17;;;;;;;5.40;2.30;;;2.20;99.90;;;;;;4288643;33;20186;-71
2021/04/14 07:20:08;;;;;;;5.00;2.40;;;2.20;99.90;;;;;;4290419;33;20154;-71
2021/04/14 07:22:47;;;;;;;7.57;2.60;;;2.20;99.90;;;;;;4289271;33;20190;-71
2021/04/14 07:25:43;;;;;;;6.93;2.60;;;2.20;99.90;;;;;;4288689;33;20288;-71
2021/04/14 07:28:31;;;;;;;7.90;2.83;;;2.20;99.90;;;;;;4305497;33;20158;-71
2021/04/14 07:31:16;;;;;;;6.37;3.10;;;2.20;99.90;;;;;;4305682;33;20200;-70
2021/04/14 07:33:54;;;;;;;6.87;3.10;;;2.10;99.90;;;;;;4306029;33;20146;-71
2021/04/14 07:36:53;;;;;;;7.20;3.47;;;2.30;99.90;;;;;;4305362;33;20145;-71
2021/04/14 07:39:30;;;;;;;5.93;3.17;;;2.30;99.90;;;;;;4302334;33;20424;-72
2021/04/14 07:42:13;;;;;;;10.57;3.90;;;2.30;99.90;;;;;;4305147;33;20201;-72
2021/04/14 07:45:02;;;;;;;7.87;4.50;;;2.10;99.90;;;;;;4306403;33;20200;-72
2021/04/14 07:47:29;;;;;;;7.07;4.40;;;1.80;99.90;;;;;;4307846;33;20197;-72
2021/04/14 07:49:57;;;;;;;9.10;4.70;;;1.80;99.90;;;;;;4309187;33;20188;-71
2021/04/14 07:52:30;;;;;;;9.67;5.13;;;1.90;99.90;;;;;;4308065;33;20150;-71
2021/04/14 07:54:57;;;;;;;11.67;5.50;;;2.10;99.90;;;;;;4307582;33;20209;-71
2021/04/14 07:57:37;;;;;;;10.57;5.43;;;2.20;99.90;;;;;;4307945;33;20157;-71
2021/04/14 08:00:09;;;;;;;13.57;5.83;;;2.30;99.90;;;;;;4307774;33;20149;-71
2021/04/14 08:02:35;;;;;;;11.33;5.23;;;2.40;99.90;;;;;;4307529;33;20169;-71
2021/04/14 08:05:23;;;;;;;9.00;5.10;;;2.50;99.90;;;;;;4308255;33;20153;-71
2021/04/14 08:07:49;;;;;;;9.77;5.10;;;2.60;99.90;;;;;;4307070;33;20235;-71
2021/04/14 08:10:21;;;;;;;9.87;4.60;;;2.60;99.90;;;;;;4308086;33;20144;-71
2021/04/14 08:12:57;;;;;;;8.17;4.40;;;2.60;99.90;;;;;;4308160;33;20151;-70
2021/04/14 08:15:35;;;;;;;8.40;4.63;;;2.40;99.90;;;;;;4307471;33;20223;-70
2021/04/14 08:18:28;;;;;;;8.53;4.50;;;2.30;99.90;;;;;;4307506;33;20145;-71
2021/04/14 08:21:06;;;;;;;8.83;4.70;;;2.30;99.90;;;;;;4307449;33;20481;-71
2021/04/14 08:23:33;;;;;;;10.10;5.07;;;2.50;99.90;;;;;;4307677;33;20145;-71
2021/04/14 08:26:11;;;;;;;9.50;5.47;;;2.50;99.90;;;;;;4307474;33;20200;-70
2021/04/14 08:28:44;;;;;;;11.43;6.40;;;2.40;99.90;;;;;;4307255;33;20142;-70
2021/04/14 08:31:36;;;;;;;12.37;7.23;;;2.50;99.90;;;;;;4307052;33;20146;-70
2021/04/14 08:34:17;;;;;;;16.80;8.30;;;2.50;99.90;;;;;;4307319;33;20166;-71
2021/04/14 08:37:16;;;;;;;16.23;8.60;;;2.50;99.90;;;;;;4307834;33;20145;-70
2021/04/14 08:40:15;;;;;;;14.23;7.87;;;2.50;99.90;;;;;;4307333;33;20168;-73
2021/04/14 08:42:42;;;;;;;13.60;6.70;;;2.40;99.90;;;;;;4306792;33;20399;-71
2021/04/14 08:45:16;;;;;;;12.27;6.57;;;2.40;99.90;;;;;;4307262;33;20150;-73
2021/04/14 08:47:51;;;;;;;11.43;6.80;;;2.40;99.90;;;;;;4307179;33;20140;-71
2021/04/14 08:50:28;;;;;;;9.83;6.57;;;2.40;99.90;;;;;;4307578;33;20441;-71
2021/04/14 08:52:57;;;;;;;13.10;6.47;;;2.40;99.90;;;;;;4306949;33;20492;-71
2021/04/14 08:55:26;;;;;;;11.23;5.80;;;2.40;99.90;;;;;;4306920;33;20151;-71
2021/04/14 08:57:55;;;;;;;9.97;5.83;;;2.50;99.90;;;;;;4305988;33;20147;-70
2021/04/14 09:00:24;;;;;;;9.47;4.83;;;2.60;99.90;;;;;;4306763;33;20150;-71
2021/04/14 09:02:53;;;;;;;7.97;4.73;;;2.60;99.90;;;;;;4306867;33;20186;-71
2021/04/14 09:05:22;;;;;;;11.73;5.20;;;2.60;99.90;;;;;;4306791;33;20162;-71
2021/04/14 09:07:50;;;;;;;10.87;6.27;;;2.60;99.90;;;;;;4306792;33;20468;-71
2021/04/14 09:10:37;;;;;;;10.47;7.03;;;2.70;99.90;;;;;;4306885;33;20357;-71
2021/04/14 09:13:06;;;;;;;12.00;7.13;;;2.80;99.90;;;;;;4306571;33;20146;-71
2021/04/14 09:15:33;;;;;;;8.50;5.27;;;2.80;99.90;;;;;;4306479;33;20176;-72
2021/04/14 09:18:03;;;;;;;10.17;5.03;;;2.80;99.90;;;;;;4307112;33;20213;-71
2021/04/14 09:20:36;;;;;;;8.20;4.97;;;2.80;99.90;;;;;;4307473;33;20165;-71
2021/04/14 09:23:11;;;;;;;11.87;5.33;;;2.70;99.90;;;;;;4307789;33;20168;-72
2021/04/14 09:25:47;;;;;;;12.33;6.57;;;2.70;99.90;;;;;;4307225;33;20168;-72
2021/04/14 09:28:29;;;;;;;15.73;7.90;;;2.70;99.90;;;;;;4307297;33;20462;-72
2021/04/14 09:31:14;;;;;;;14.80;9.17;;;2.60;99.90;;;;;;4306227;33;20207;-72
2021/04/14 09:33:47;;;;;;;17.00;10.30;;;2.70;99.90;;;;;;4306769;33;20398;-72
2021/04/14 09:36:29;;;;;;;10.30;6.33;;;2.80;99.90;;;;;;4306466;33;20451;-72
2021/04/14 09:39:08;;;;;;;11.13;6.30;;;2.70;99.90;;;;;;4306952;33;20236;-71
2021/04/14 09:41:37;;;;;;;9.87;6.00;;;2.70;99.90;;;;;;4306290;33;20193;-67
2021/04/14 09:44:30;;;;;;;12.97;7.40;;;2.70;99.90;;;;;;4306195;33;20202;-67
2021/04/14 09:47:13;;;;;;;16.40;8.10;;;2.70;99.90;;;;;;4306494;33;20161;-68
2021/04/14 09:49:44;;;;;;;16.47;9.37;;;2.80;99.90;;;;;;4306914;33;20157;-68
2021/04/14 09:52:47;;;;;;;19.03;10.67;;;2.90;99.90;;;;;;4305554;33;20154;-67
2021/04/14 09:55:25;;;;;;;18.93;11.00;;;2.90;99.90;;;;;;4305532;33;20183;-68
2021/04/14 09:57:52;;;;;;;19.97;12.57;;;3.00;99.90;;;;;;4306527;33;20154;-67
2021/04/14 10:00:26;;;;;;;23.57;12.00;;;2.90;99.90;;;;;;4306467;33;20221;-67
2021/04/14 10:02:55;;;;;;;17.80;10.43;;;3.00;99.90;;;;;;4305410;33;20161;-68
2021/04/14 10:05:27;;;;;;;19.80;11.03;;;2.90;99.90;;;;;;4306051;33;20147;-68
2021/04/14 10:07:59;;;;;;;18.03;10.87;;;3.00;99.90;;;;;;4306472;33;20519;-69
2021/04/14 10:10:26;;;;;;;19.20;11.37;;;3.00;99.90;;;;;;4304937;33;20185;-67
2021/04/14 10:12:53;;;;;;;22.10;13.53;;;3.00;99.90;;;;;;4305921;33;20213;-68
2021/04/14 10:15:34;;;;;;;19.40;11.40;;;3.10;99.90;;;;;;4306072;33;20189;-66
2021/04/14 10:18:05;;;;;;;22.30;11.97;;;3.10;99.90;;;;;;4306306;33;20226;-67
2021/04/14 10:20:36;;;;;;;16.37;10.60;;;3.10;99.90;;;;;;4307242;33;20137;-68
2021/04/14 10:23:09;;;;;;;17.30;10.63;;;3.10;99.90;;;;;;4307115;33;20146;-68
2021/04/14 10:25:38;;;;;;;18.70;11.40;;;3.10;99.90;;;;;;4306483;33;20225;-67
2021/04/14 10:28:15;;;;;;;18.13;10.23;;;3.00;99.90;;;;;;4306719;33;20157;-68
2021/04/14 10:30:46;;;;;;;19.27;10.50;;;2.90;99.90;;;;;;4306386;33;20149;-68
2021/04/14 10:33:25;;;;;;;17.67;11.23;;;2.90;99.90;;;;;;4305412;33;20164;-67
2021/04/14 10:35:55;;;;;;;17.17;10.33;;;2.80;99.90;;;;;;4305394;33;20262;-67
2021/04/14 10:38:33;;;;;;;15.33;8.83;;;2.80;99.90;;;;;;4305875;33;20142;-67
2021/04/14 10:41:19;;;;;;;13.57;7.17;;;2.80;99.90;;;;;;4306466;33;20185;-70
2021/04/14 10:44:17;;;;;;;8.83;6.60;;;2.80;99.90;;;;;;4304436;33;20161;-68
2021/04/14 10:46:45;;;;;;;11.33;6.70;;;2.70;99.90;;;;;;4305328;33;20146;-68
2021/04/14 10:49:25;;;;;;;12.20;7.40;;;2.60;99.90;;;;;;4305402;33;20485;-68
2021/04/14 10:51:55;;;;;;;12.30;8.07;;;2.70;99.90;;;;;;4305590;33;20145;-67
2021/04/14 10:54:27;;;;;;;12.90;7.73;;;2.80;99.90;;;;;;4305876;33;20208;-67
2021/04/14 10:57:01;;;;;;;11.30;6.93;;;2.80;99.90;;;;;;4306473;33;20154;-67
2021/04/14 10:59:29;;;;;;;11.37;6.07;;;2.70;99.90;;;;;;4305168;33;20173;-70
2021/04/14 11:01:56;;;;;;;11.97;7.03;;;2.70;99.90;;;;;;4305338;33;20157;-72
2021/04/14 11:04:38;;;;;;;11.57;7.90;;;2.70;99.90;;;;;;4304817;33;20157;-72
2021/04/14 11:07:20;;;;;;;12.93;7.67;;;2.70;99.90;;;;;;4305532;33;20417;-72
2021/04/14 11:09:48;;;;;;;11.53;7.47;;;2.80;99.90;;;;;;4301830;33;20592;-71
2021/04/14 11:12:19;;;;;;;15.03;8.70;;;2.60;99.90;;;;;;4303406;33;20189;-71
2021/04/14 11:14:49;;;;;;;12.70;8.07;;;2.70;99.90;;;;;;4304734;33;20224;-70
2021/04/14 11:17:21;;;;;;;13.07;7.83;;;2.60;99.90;;;;;;4305630;33;20182;-71
2021/04/14 11:19:57;;;;;;;15.33;8.93;;;2.50;99.90;;;;;;4305719;33;20161;-72
2021/04/14 11:22:25;;;;;;;14.23;8.77;;;2.50;99.90;;;;;;4304660;33;20153;-72
2021/04/14 11:24:55;;;;;;;14.37;9.00;;;2.50;99.90;;;;;;4304984;33;20213;-72
2021/04/14 11:27:28;;;;;;;14.20;9.60;;;2.50;99.90;;;;;;4304677;33;20149;-71
2021/04/14 11:30:10;;;;;;;15.67;9.57;;;2.50;99.90;;;;;;4304707;33;20288;-71
2021/04/14 11:32:37;;;;;;;15.67;10.43;;;2.40;99.90;;;;;;4303745;33;20500;-70
2021/04/14 11:35:04;;;;;;;17.07;10.60;;;2.30;99.90;;;;;;4302868;33;20177;-71
2021/04/14 11:37:37;;;;;;;18.83;10.70;;;2.40;99.90;;;;;;4304044;33;20193;-71
2021/04/14 11:40:07;;;;;;;22.07;11.20;;;2.30;99.90;;;;;;4302940;33;20438;-70
2021/04/14 11:42:56;;;;;;;16.23;9.67;;;2.40;99.90;;;;;;4304216;33;20154;-71
2021/04/14 11:45:38;;;;;;;14.50;8.17;;;2.40;99.90;;;;;;4306045;33;20476;-70
2021/04/14 11:48:16;;;;;;;13.10;8.10;;;2.20;99.90;;;;;;4305047;33;20158;-70
2021/04/14 11:50:45;;;;;;;11.77;7.83;;;2.20;99.90;;;;;;4305432;33;20493;-70
2021/04/14 11:53:31;;;;;;;9.83;6.63;;;2.30;99.90;;;;;;4304770;33;20216;-70
2021/04/14 11:56:00;;;;;;;11.10;5.60;;;2.30;99.90;;;;;;4307037;33;20142;-71
2021/04/14 11:58:47;;;;;;;7.93;5.07;;;2.30;99.90;;;;;;4305633;33;20417;-71
2021/04/14 12:01:26;;;;;;;7.33;4.73;;;2.20;99.90;;;;;;4309447;33;20161;-73
2021/04/14 12:03:54;;;;;;;8.73;4.30;;;2.20;99.90;;;;;;4319305;33;20156;-72
2021/04/14 12:06:21;;;;;;;7.77;4.10;;;2.30;99.90;;;;;;4319452;33;20146;-72
2021/04/14 12:08:48;;;;;;;6.53;4.23;;;2.30;99.90;;;;;;4319734;33;20212;-72
2021/04/14 12:11:23;;;;;;;10.67;5.90;;;2.20;99.90;;;;;;4318779;33;20252;-71
2021/04/14 12:13:51;;;;;;;9.43;6.13;;;2.20;99.90;;;;;;4318627;33;20149;-72
2021/04/14 12:16:18;;;;;;;10.53;7.23;;;2.20;99.90;;;;;;4319363;33;20171;-77
2021/04/14 12:18:45;;;;;;;10.67;6.70;;;2.30;99.90;;;;;;4319149;33;20169;-71
2021/04/14 12:21:12;;;;;;;12.90;7.67;;;2.20;99.90;;;;;;4319901;33;20161;-71
2021/04/14 12:23:40;;;;;;;13.90;8.20;;;2.30;99.90;;;;;;4319242;33;20137;-71
2021/04/14 12:26:07;;;;;;;14.47;9.07;;;2.30;99.90;;;;;;4318906;33;20142;-72
2021/04/14 12:28:40;;;;;;;15.07;9.83;;;2.20;99.90;;;;;;4319121;33;20197;-75
2021/04/14 12:31:07;;;;;;;14.37;9.77;;;2.30;99.90;;;;;;4319703;33;20146;-72
2021/04/14 12:33:48;;;;;;;12.87;8.47;;;2.30;99.90;;;;;;4321953;33;20182;-71
2021/04/14 12:36:15;;;;;;;13.93;8.00;;;2.30;99.90;;;;;;4322292;33;20259;-71
2021/04/14 12:38:45;;;;;;;10.83;7.30;;;2.30;99.90;;;;;;4321394;33;20220;-72
2021/04/14 12:41:21;;;;;;;10.63;6.83;;;2.30;99.90;;;;;;4321971;33;20204;-73
2021/04/14 12:43:48;;;;;;;11.53;6.67;;;2.20;99.90;;;;;;4322318;33;20427;-72
2021/04/14 12:46:18;;;;;;;10.60;6.17;;;2.20;99.90;;;;;;4321117;33;20259;-74
2021/04/14 12:48:45;;;;;;;11.00;6.43;;;2.10;99.90;;;;;;4321220;33;20146;-76
2021/04/14 12:51:26;;;;;;;9.33;5.80;;;2.10;99.90;;;;;;4321161;33;20196;-73
2021/04/14 12:54:20;;;;;;;6.87;4.60;;;2.20;99.90;;;;;;4321967;33;20184;-74
2021/04/14 12:57:09;;;;;;;8.67;4.70;;;2.20;99.90;;;;;;4321489;33;20186;-74
2021/04/14 13:00:03;;;;;;;8.17;4.33;;;2.30;99.90;;;;;;4321860;33;20181;-75
2021/04/14 13:03:02;;;;;;;7.17;3.97;;;2.30;99.90;;;;;;4321705;33;20244;-74
2021/04/14 13:05:46;;;;;;;7.37;3.90;;;2.30;99.90;;;;;;4320905;33;20132;-73
2021/04/14 13:08:36;;;;;;;7.70;3.50;;;2.30;99.90;;;;;;4322290;33;20165;-71
2021/04/14 13:11:16;;;;;;;5.37;4.10;;;2.30;99.90;;;;;;4320914;33;20476;-72
2021/04/14 13:13:43;;;;;;;7.63;3.60;;;2.20;99.90;;;;;;4321942;33;20145;-72
2021/04/14 13:16:32;;;;;;;4.87;3.37;;;2.30;99.90;;;;;;4320555;33;20562;-72